Indian Harbour Beach, Florida
Current Conditions -  °F | °C
As of 6:58 PM on Wednesday 26 Nov 2014 (Local Time) from KCOF Reporting Station
Clear Clear  
Wind Chill: 56°   Ceiling: Unl
Heat Index: 56°   Visibility: 10mi
Dew Point: 49°   Wind: 6mph
Humidity: 79%   Direction: 300°WNW
Pressure: 30.16"   Gusts: NA
Location:  28.1733°N, 80.598°W
Report Text: KCOF 262358Z AUTO 30005KT 10SM CLR 13/10 A3016 RMK AO2 SLP218 60000 T01330097 10149 20133 51012
Loading
Personal Weather Stations






























Interactive Weather Map New forecast layout! Learn more

10-Day Weather Forecast

Advertisements
Track Severe Weather on mobile